Airfield :
LOGIN :

Register | Disclaimer

   EN    FR    IT 

 










Legend :    VFR   Marginal VFR   IFR   Intensive IFR   Very Intensive IFR
Visi :
Ceiling :
>= 8 km
>= 3000ft
5 to 8 km
1000 to 3000 ft
1500m to 5 km
500 to 1000 ft
800 to 1500m
200 to 500 ft
< 800m
< 200 ft
Symbols :   Thunderstorms  Fog  Heavy snow  Heavy precipitations  Wind > 20 kt
SIGMETs :     Misc.  Thunderstorms  Icing  Turbulence  Mountain Waves  Volcanic Ashes






- Airport Elevation : 776 ft
- IATA code : RMS


ETAR - Ramstein Air Base

CURRENT METAR :
  • 260056Z 00000KT 9999 CLR 15/15 A2985 RMK AO2A SLP103 T01500150 $

EXPIRED METARs :
  • 252356Z 26003KT 9999 CLR 15/15 A2985 RMK AO2A SLP104 60000 T01530153 10223 20150 56007 $
  • 252256Z 00000KT 9999 CLR 16/16 A2985 RMK AO2A SLP104 T01600160 402570142

TAF AMD TAF ETAR
Valid from the 25 at 19:00 until the 27 at 00:00 UTC


251949Z 2519/2624 VRB06KT 9000 -SHRA FEW010 BKN030 QNH2976INS
TEMPO 2519/2521 4800 -TSRA BKN020CB
BECMG 2600/2601 VRB06KT 6000 BR BKN020 QNH2979INS
BECMG 2607/2608 20012KT 9999 NSW BKN020 QNH2980INS
BECMG 2610/2611 20012G20KT 9999 SCT030 QNH2982INS
BECMG 2617/2618 VRB06KT 8000 BR SCT015 BKN020 QNH2985INS TX25/2615Z TN12/2603Z



MET'MAP, your aeronautical weather chart ! - Copyright ORBIFLY December 2007 - Disclaimer

ORBIFLY MET'MAP TEAM :

Programming & Development : Alexandra Zaïnal
Concept & original design : Baudouin d'Aumeries
Assistance for programming : Marc-Olivier Méhu
Technical & hardware support : Manuel Goepfert

Contact : metmap@orbifly.com




SOURCES & CREDITS :

   NOAA